sensor_id;sensor_type;location;lat;lon;timestamp;pressure;altitude;pressure_sealevel;temperature;humidity
12073;BME280;6098;49.004;8.372;2022-09-09T00:20:14;99940.12;;;18.60;77.40
12073;BME280;6098;49.004;8.372;2022-09-09T01:20:56;99980.63;;;18.52;77.76
12073;BME280;6098;49.004;8.372;2022-09-09T01:35:52;99981.48;;;18.40;76.87
12073;BME280;6098;49.004;8.372;2022-09-09T01:50:44;99974.46;;;18.04;81.91
12073;BME280;6098;49.004;8.372;2022-09-09T02:05:39;99947.91;;;17.83;85.29
12073;BME280;6098;49.004;8.372;2022-09-09T02:20:32;99944.69;;;17.67;84.55
12073;BME280;6098;49.004;8.372;2022-09-09T02:35:24;99928.45;;;17.63;84.74
12073;BME280;6098;49.004;8.372;2022-09-09T02:50:34;99923.94;;;17.58;85.49
12073;BME280;6098;49.004;8.372;2022-09-09T03:05:31;99919.38;;;17.53;85.50
12073;BME280;6098;49.004;8.372;2022-09-09T03:20:23;99931.20;;;17.50;85.26
12073;BME280;6098;49.004;8.372;2022-09-09T03:35:14;99937.57;;;17.42;84.88
12073;BME280;6098;49.004;8.372;2022-09-09T03:50:06;99937.81;;;17.39;84.49
12073;BME280;6098;49.004;8.372;2022-09-09T04:04:57;99941.83;;;17.39;84.40
12073;BME280;6098;49.004;8.372;2022-09-09T04:19:49;99952.42;;;17.41;83.54
12073;BME280;6098;49.004;8.372;2022-09-09T04:34:41;99964.86;;;17.48;83.15
12073;BME280;6098;49.004;8.372;2022-09-09T04:49:33;99973.13;;;17.57;81.22
12073;BME280;6098;49.004;8.372;2022-09-09T05:04:25;99991.95;;;17.68;80.15
12073;BME280;6098;49.004;8.372;2022-09-09T05:19:17;99996.52;;;17.73;78.76
12073;BME280;6098;49.004;8.372;2022-09-09T05:34:09;100008.61;;;17.78;78.81
12073;BME280;6098;49.004;8.372;2022-09-09T05:49:01;100005.50;;;17.90;78.61
12073;BME280;6098;49.004;8.372;2022-09-09T06:03:52;100017.28;;;18.11;77.03
12073;BME280;6098;49.004;8.372;2022-09-09T06:18:44;100028.03;;;18.28;76.04
12073;BME280;6098;49.004;8.372;2022-09-09T06:33:40;100003.05;;;18.45;75.14
12073;BME280;6098;49.004;8.372;2022-09-09T06:48:34;100012.99;;;18.61;73.98
12073;BME280;6098;49.004;8.372;2022-09-09T07:03:26;100026.61;;;18.76;74.92
12073;BME280;6098;49.004;8.372;2022-09-09T07:18:19;100021.34;;;18.91;74.21
12073;BME280;6098;49.004;8.372;2022-09-09T07:33:10;100030.23;;;18.92;73.99
12073;BME280;6098;49.004;8.372;2022-09-09T07:48:02;100027.63;;;19.08;75.03
12073;BME280;6098;49.004;8.372;2022-09-09T08:02:54;100029.97;;;19.29;74.87
12073;BME280;6098;49.004;8.372;2022-09-09T08:17:47;100050.00;;;19.58;72.40
12073;BME280;6098;49.004;8.372;2022-09-09T08:32:40;100063.15;;;19.51;72.12
12073;BME280;6098;49.004;8.372;2022-09-09T09:02:50;100081.10;;;19.56;76.21
12073;BME280;6098;49.004;8.372;2022-09-09T09:17:38;100058.74;;;19.33;76.43
12073;BME280;6098;49.004;8.372;2022-09-09T09:32:30;100065.98;;;19.71;71.60
12073;BME280;6098;49.004;8.372;2022-09-09T09:47:22;100067.70;;;19.83;67.58
12073;BME280;6098;49.004;8.372;2022-09-09T10:02:14;100063.89;;;20.07;67.32
12073;BME280;6098;49.004;8.372;2022-09-09T10:48:12;100043.73;;;20.70;60.85
12073;BME280;6098;49.004;8.372;2022-09-09T11:03:06;100038.42;;;20.84;58.79
12073;BME280;6098;49.004;8.372;2022-09-09T11:17:59;100025.01;;;21.29;56.38
12073;BME280;6098;49.004;8.372;2022-09-09T11:48:05;100009.19;;;22.14;58.79
12073;BME280;6098;49.004;8.372;2022-09-09T12:03:02;99999.67;;;22.29;58.24
12073;BME280;6098;49.004;8.372;2022-09-09T12:17:57;99994.50;;;22.22;57.56
12073;BME280;6098;49.004;8.372;2022-09-09T12:32:59;99991.93;;;22.01;56.05
12073;BME280;6098;49.004;8.372;2022-09-09T13:17:37;99991.59;;;21.31;64.23
12073;BME280;6098;49.004;8.372;2022-09-09T13:32:29;99969.31;;;21.83;66.03
12073;BME280;6098;49.004;8.372;2022-09-09T13:47:21;99954.76;;;21.56;61.18
12073;BME280;6098;49.004;8.372;2022-09-09T14:02:16;99947.71;;;21.40;69.74
12073;BME280;6098;49.004;8.372;2022-09-09T14:17:09;99969.81;;;19.20;79.62
12073;BME280;6098;49.004;8.372;2022-09-09T14:32:02;99978.24;;;18.48;97.78
12073;BME280;6098;49.004;8.372;2022-09-09T14:46:54;100016.30;;;18.47;100.00
12073;BME280;6098;49.004;8.372;2022-09-09T15:01:45;99987.97;;;18.09;99.95
12073;BME280;6098;49.004;8.372;2022-09-09T15:16:37;99992.97;;;18.13;100.00
12073;BME280;6098;49.004;8.372;2022-09-09T15:31:30;99996.01;;;18.56;100.00
12073;BME280;6098;49.004;8.372;2022-09-09T15:46:41;100015.53;;;18.80;100.00
12073;BME280;6098;49.004;8.372;2022-09-09T16:01:37;100036.03;;;18.58;99.51
12073;BME280;6098;49.004;8.372;2022-09-09T16:16:28;100023.89;;;18.01;92.36
12073;BME280;6098;49.004;8.372;2022-09-09T16:31:20;100046.92;;;17.80;91.61
12073;BME280;6098;49.004;8.372;2022-09-09T16:46:14;100040.71;;;17.67;88.92
12073;BME280;6098;49.004;8.372;2022-09-09T17:01:08;100047.42;;;17.91;93.50
12073;BME280;6098;49.004;8.372;2022-09-09T17:16:03;100050.42;;;17.93;93.72
12073;BME280;6098;49.004;8.372;2022-09-09T17:31:13;100049.84;;;17.77;90.20
12073;BME280;6098;49.004;8.372;2022-09-09T17:46:16;100044.34;;;17.73;93.60
12073;BME280;6098;49.004;8.372;2022-09-09T18:01:12;100049.55;;;17.62;92.53
12073;BME280;6098;49.004;8.372;2022-09-09T18:16:05;100072.41;;;17.55;93.27
12073;BME280;6098;49.004;8.372;2022-09-09T18:30:54;100065.72;;;17.49;94.32
12073;BME280;6098;49.004;8.372;2022-09-09T18:45:45;100081.09;;;17.46;92.30
12073;BME280;6098;49.004;8.372;2022-09-09T19:00:37;100088.49;;;17.49;93.42
12073;BME280;6098;49.004;8.372;2022-09-09T19:15:29;100104.48;;;17.50;92.43
12073;BME280;6098;49.004;8.372;2022-09-09T19:30:21;100136.72;;;17.36;92.86
12073;BME280;6098;49.004;8.372;2022-09-09T19:45:12;100134.59;;;17.48;96.82
12073;BME280;6098;49.004;8.372;2022-09-09T20:00:04;100147.84;;;17.50;95.76
12073;BME280;6098;49.004;8.372;2022-09-09T20:14:57;100144.94;;;17.53;97.47
12073;BME280;6098;49.004;8.372;2022-09-09T20:29:50;100153.61;;;17.56;98.32
12073;BME280;6098;49.004;8.372;2022-09-09T20:44:41;100148.59;;;17.52;98.20
12073;BME280;6098;49.004;8.372;2022-09-09T20:59:32;100150.13;;;17.43;97.98
12073;BME280;6098;49.004;8.372;2022-09-09T21:14:24;100158.27;;;17.35;97.82
12073;BME280;6098;49.004;8.372;2022-09-09T21:29:16;100213.42;;;17.32;97.23
12073;BME280;6098;49.004;8.372;2022-09-09T21:44:07;100186.71;;;16.98;97.13
12073;BME280;6098;49.004;8.372;2022-09-09T21:58:59;100181.92;;;16.77;95.73
12073;BME280;6098;49.004;8.372;2022-09-09T22:14:02;100179.52;;;16.60;93.73
12073;BME280;6098;49.004;8.372;2022-09-09T22:28:54;100182.87;;;16.50;93.63
12073;BME280;6098;49.004;8.372;2022-09-09T22:43:46;100180.49;;;16.52;96.80
12073;BME280;6098;49.004;8.372;2022-09-09T22:58:38;100174.75;;;16.44;95.84
12073;BME280;6098;49.004;8.372;2022-09-09T23:13:30;100185.70;;;16.40;94.03
12073;BME280;6098;49.004;8.372;2022-09-09T23:28:22;100185.45;;;16.38;93.20
12073;BME280;6098;49.004;8.372;2022-09-09T23:43:14;100177.31;;;16.39;91.51
12073;BME280;6098;49.004;8.372;2022-09-09T23:58:06;100178.29;;;16.45;92.57
